sensor_id;sensor_type;location;lat;lon;timestamp;pressure;altitude;pressure_sealevel;temperature;humidity
33265;BME280;31404;53.974;-1.086;2024-03-08T00:00:37;101888.66;;;0.64;100.00
33265;BME280;31404;53.974;-1.086;2024-03-08T00:05:34;101883.45;;;1.38;100.00
33265;BME280;31404;53.974;-1.086;2024-03-08T00:10:34;101876.36;;;1.74;100.00
33265;BME280;31404;53.974;-1.086;2024-03-08T00:15:34;101877.17;;;3.08;100.00
33265;BME280;31404;53.974;-1.086;2024-03-08T00:20:35;101875.49;;;1.19;100.00
33265;BME280;31404;53.974;-1.086;2024-03-08T00:25:35;101868.60;;;1.79;100.00
33265;BME280;31404;53.974;-1.086;2024-03-08T00:30:35;101864.84;;;1.04;100.00
33265;BME280;31404;53.974;-1.086;2024-03-08T00:35:35;101862.55;;;0.63;100.00
33265;BME280;31404;53.974;-1.086;2024-03-08T00:40:35;101855.96;;;1.53;100.00
33265;BME280;31404;53.974;-1.086;2024-03-08T00:45:35;101848.15;;;1.69;100.00
33265;BME280;31404;53.974;-1.086;2024-03-08T00:50:34;101846.77;;;0.96;100.00
33265;BME280;31404;53.974;-1.086;2024-03-08T00:55:34;101844.45;;;1.57;100.00
33265;BME280;31404;53.974;-1.086;2024-03-08T01:00:34;101834.05;;;1.18;100.00
33265;BME280;31404;53.974;-1.086;2024-03-08T01:05:34;101837.74;;;0.63;100.00
33265;BME280;31404;53.974;-1.086;2024-03-08T01:10:34;101815.12;;;1.73;100.00
33265;BME280;31404;53.974;-1.086;2024-03-08T01:15:34;101813.27;;;0.60;100.00
33265;BME280;31404;53.974;-1.086;2024-03-08T01:20:35;101803.88;;;1.82;100.00
33265;BME280;31404;53.974;-1.086;2024-03-08T01:25:40;101791.80;;;1.66;100.00
33265;BME280;31404;53.974;-1.086;2024-03-08T01:30:34;101787.81;;;0.44;100.00
33265;BME280;31404;53.974;-1.086;2024-03-08T01:35:34;101777.60;;;1.11;100.00
33265;BME280;31404;53.974;-1.086;2024-03-08T01:40:34;101777.17;;;0.98;100.00
33265;BME280;31404;53.974;-1.086;2024-03-08T01:45:34;101769.44;;;1.70;100.00
33265;BME280;31404;53.974;-1.086;2024-03-08T01:50:34;101763.35;;;0.57;100.00
33265;BME280;31404;53.974;-1.086;2024-03-08T01:55:35;101763.81;;;1.14;100.00
33265;BME280;31404;53.974;-1.086;2024-03-08T02:00:40;101757.14;;;1.54;100.00
33265;BME280;31404;53.974;-1.086;2024-03-08T02:05:35;101749.41;;;1.63;100.00
33265;BME280;31404;53.974;-1.086;2024-03-08T02:10:34;101740.59;;;1.71;100.00
33265;BME280;31404;53.974;-1.086;2024-03-08T02:20:35;101723.37;;;2.35;100.00
33265;BME280;31404;53.974;-1.086;2024-03-08T02:25:35;101716.49;;;0.89;100.00
33265;BME280;31404;53.974;-1.086;2024-03-08T02:30:35;101715.46;;;0.77;100.00
33265;BME280;31404;53.974;-1.086;2024-03-08T02:35:35;101707.32;;;1.38;100.00
33265;BME280;31404;53.974;-1.086;2024-03-08T02:40:35;101707.82;;;0.16;100.00
33265;BME280;31404;53.974;-1.086;2024-03-08T02:45:35;101696.80;;;1.95;100.00
33265;BME280;31404;53.974;-1.086;2024-03-08T02:50:35;101688.31;;;1.47;100.00
33265;BME280;31404;53.974;-1.086;2024-03-08T02:55:35;101686.53;;;0.34;100.00
33265;BME280;31404;53.974;-1.086;2024-03-08T03:00:35;101674.62;;;0.99;100.00
33265;BME280;31404;53.974;-1.086;2024-03-08T03:05:34;101658.70;;;2.78;100.00
33265;BME280;31404;53.974;-1.086;2024-03-08T03:10:34;101658.15;;;3.55;100.00
33265;BME280;31404;53.974;-1.086;2024-03-08T03:15:34;101654.66;;;1.23;100.00
33265;BME280;31404;53.974;-1.086;2024-03-08T03:20:34;101644.94;;;1.70;100.00
33265;BME280;31404;53.974;-1.086;2024-03-08T03:25:35;101635.89;;;1.49;100.00
33265;BME280;31404;53.974;-1.086;2024-03-08T03:30:34;101631.61;;;2.43;100.00
33265;BME280;31404;53.974;-1.086;2024-03-08T03:35:34;101629.89;;;1.47;100.00
33265;BME280;31404;53.974;-1.086;2024-03-08T03:40:35;101629.52;;;1.14;100.00
33265;BME280;31404;53.974;-1.086;2024-03-08T03:45:35;101624.24;;;1.97;100.00
33265;BME280;31404;53.974;-1.086;2024-03-08T03:50:35;101620.39;;;2.03;100.00
33265;BME280;31404;53.974;-1.086;2024-03-08T03:55:35;101619.55;;;1.64;100.00
33265;BME280;31404;53.974;-1.086;2024-03-08T04:00:34;101609.13;;;1.13;100.00
33265;BME280;31404;53.974;-1.086;2024-03-08T04:05:34;101605.34;;;1.52;100.00
33265;BME280;31404;53.974;-1.086;2024-03-08T04:10:34;101598.51;;;0.79;100.00
33265;BME280;31404;53.974;-1.086;2024-03-08T04:15:34;101596.89;;;1.30;100.00
33265;BME280;31404;53.974;-1.086;2024-03-08T04:20:35;101590.82;;;1.75;100.00
33265;BME280;31404;53.974;-1.086;2024-03-08T04:25:34;101587.96;;;1.66;100.00
33265;BME280;31404;53.974;-1.086;2024-03-08T04:30:34;101580.52;;;1.80;100.00
33265;BME280;31404;53.974;-1.086;2024-03-08T04:35:34;101577.11;;;0.41;100.00
33265;BME280;31404;53.974;-1.086;2024-03-08T04:40:35;101569.07;;;1.04;100.00
33265;BME280;31404;53.974;-1.086;2024-03-08T04:45:35;101561.44;;;0.40;100.00
33265;BME280;31404;53.974;-1.086;2024-03-08T04:50:35;101561.73;;;0.72;100.00
33265;BME280;31404;53.974;-1.086;2024-03-08T04:55:35;101553.73;;;1.21;100.00
33265;BME280;31404;53.974;-1.086;2024-03-08T05:00:35;101550.64;;;2.39;100.00
33265;BME280;31404;53.974;-1.086;2024-03-08T05:05:35;101554.53;;;0.84;100.00
33265;BME280;31404;53.974;-1.086;2024-03-08T05:10:35;101552.77;;;0.28;100.00
33265;BME280;31404;53.974;-1.086;2024-03-08T05:15:35;101546.03;;;0.58;100.00
33265;BME280;31404;53.974;-1.086;2024-03-08T05:20:34;101540.82;;;0.27;100.00
33265;BME280;31404;53.974;-1.086;2024-03-08T05:25:34;101539.11;;;0.98;100.00
33265;BME280;31404;53.974;-1.086;2024-03-08T05:30:34;101533.55;;;0.70;100.00
33265;BME280;31404;53.974;-1.086;2024-03-08T05:35:34;101537.22;;;1.08;100.00
33265;BME280;31404;53.974;-1.086;2024-03-08T05:40:34;101531.52;;;0.85;100.00
33265;BME280;31404;53.974;-1.086;2024-03-08T05:45:34;101529.07;;;0.70;100.00
33265;BME280;31404;53.974;-1.086;2024-03-08T05:50:34;101526.59;;;1.33;100.00
33265;BME280;31404;53.974;-1.086;2024-03-08T05:55:35;101519.11;;;0.65;100.00
33265;BME280;31404;53.974;-1.086;2024-03-08T06:00:35;101518.56;;;0.86;100.00
33265;BME280;31404;53.974;-1.086;2024-03-08T06:05:35;101512.31;;;1.00;100.00
33265;BME280;31404;53.974;-1.086;2024-03-08T06:10:35;101506.10;;;1.42;100.00
33265;BME280;31404;53.974;-1.086;2024-03-08T06:15:35;101502.29;;;0.49;100.00
33265;BME280;31404;53.974;-1.086;2024-03-08T06:20:35;101499.72;;;0.71;100.00
33265;BME280;31404;53.974;-1.086;2024-03-08T06:25:37;101497.59;;;0.71;100.00
33265;BME280;31404;53.974;-1.086;2024-03-08T06:30:35;101492.25;;;0.88;100.00
33265;BME280;31404;53.974;-1.086;2024-03-08T06:35:35;101491.35;;;0.97;100.00
33265;BME280;31404;53.974;-1.086;2024-03-08T06:40:35;101489.66;;;0.50;100.00
33265;BME280;31404;53.974;-1.086;2024-03-08T06:45:35;101494.16;;;0.33;100.00
33265;BME280;31404;53.974;-1.086;2024-03-08T06:50:35;101494.45;;;0.68;100.00
33265;BME280;31404;53.974;-1.086;2024-03-08T06:55:34;101493.87;;;0.84;100.00
33265;BME280;31404;53.974;-1.086;2024-03-08T07:00:34;101489.59;;;1.15;100.00
33265;BME280;31404;53.974;-1.086;2024-03-08T07:05:34;101484.86;;;2.00;100.00
33265;BME280;31404;53.974;-1.086;2024-03-08T07:10:34;101491.86;;;1.00;100.00
33265;BME280;31404;53.974;-1.086;2024-03-08T07:15:34;101481.55;;;2.32;100.00
33265;BME280;31404;53.974;-1.086;2024-03-08T07:20:40;101482.40;;;2.11;100.00
33265;BME280;31404;53.974;-1.086;2024-03-08T07:25:34;101480.52;;;1.63;100.00
33265;BME280;31404;53.974;-1.086;2024-03-08T07:30:34;101481.62;;;2.20;100.00
33265;BME280;31404;53.974;-1.086;2024-03-08T07:35:34;101478.28;;;2.08;100.00
33265;BME280;31404;53.974;-1.086;2024-03-08T07:40:35;101473.14;;;1.84;100.00
33265;BME280;31404;53.974;-1.086;2024-03-08T07:45:35;101473.86;;;1.29;100.00
33265;BME280;31404;53.974;-1.086;2024-03-08T07:50:36;101469.23;;;1.17;100.00
33265;BME280;31404;53.974;-1.086;2024-03-08T07:55:35;101473.68;;;0.93;100.00
33265;BME280;31404;53.974;-1.086;2024-03-08T08:00:34;101466.76;;;0.66;100.00
33265;BME280;31404;53.974;-1.086;2024-03-08T08:05:34;101462.45;;;0.89;100.00
33265;BME280;31404;53.974;-1.086;2024-03-08T08:10:34;101458.07;;;1.23;100.00
33265;BME280;31404;53.974;-1.086;2024-03-08T08:15:34;101454.05;;;2.22;100.00
33265;BME280;31404;53.974;-1.086;2024-03-08T08:20:35;101441.29;;;2.39;100.00
33265;BME280;31404;53.974;-1.086;2024-03-08T08:25:35;101444.66;;;1.33;100.00
33265;BME280;31404;53.974;-1.086;2024-03-08T08:30:35;101430.79;;;2.02;100.00
33265;BME280;31404;53.974;-1.086;2024-03-08T08:35:35;101428.98;;;1.08;100.00
33265;BME280;31404;53.974;-1.086;2024-03-08T08:40:34;101423.18;;;0.87;100.00
33265;BME280;31404;53.974;-1.086;2024-03-08T08:45:34;101412.65;;;0.75;100.00
33265;BME280;31404;53.974;-1.086;2024-03-08T08:50:34;101411.72;;;0.69;100.00
33265;BME280;31404;53.974;-1.086;2024-03-08T08:55:35;101405.93;;;0.85;100.00
33265;BME280;31404;53.974;-1.086;2024-03-08T09:00:35;101403.19;;;0.86;100.00
33265;BME280;31404;53.974;-1.086;2024-03-08T09:05:35;101396.11;;;1.27;100.00
33265;BME280;31404;53.974;-1.086;2024-03-08T09:10:34;101399.00;;;0.73;100.00
33265;BME280;31404;53.974;-1.086;2024-03-08T09:15:34;101401.30;;;0.73;100.00
33265;BME280;31404;53.974;-1.086;2024-03-08T09:20:35;101387.56;;;1.01;100.00
33265;BME280;31404;53.974;-1.086;2024-03-08T09:25:35;101384.16;;;1.02;100.00
33265;BME280;31404;53.974;-1.086;2024-03-08T09:30:35;101371.83;;;1.36;100.00
33265;BME280;31404;53.974;-1.086;2024-03-08T09:35:35;101369.84;;;2.03;100.00
33265;BME280;31404;53.974;-1.086;2024-03-08T09:40:34;101363.56;;;1.77;100.00
33265;BME280;31404;53.974;-1.086;2024-03-08T09:45:36;101351.79;;;2.63;100.00
33265;BME280;31404;53.974;-1.086;2024-03-08T09:50:35;101360.71;;;0.67;100.00
33265;BME280;31404;53.974;-1.086;2024-03-08T09:55:35;101347.10;;;1.11;100.00
33265;BME280;31404;53.974;-1.086;2024-03-08T10:00:34;101336.97;;;1.08;100.00
33265;BME280;31404;53.974;-1.086;2024-03-08T10:05:35;101333.39;;;1.10;100.00
33265;BME280;31404;53.974;-1.086;2024-03-08T10:10:35;101331.72;;;1.38;100.00
33265;BME280;31404;53.974;-1.086;2024-03-08T10:15:35;101327.56;;;1.13;100.00
33265;BME280;31404;53.974;-1.086;2024-03-08T10:20:34;101321.17;;;0.66;100.00
33265;BME280;31404;53.974;-1.086;2024-03-08T10:25:35;101303.04;;;0.33;100.00
33265;BME280;31404;53.974;-1.086;2024-03-08T10:30:34;101297.26;;;0.64;100.00
33265;BME280;31404;53.974;-1.086;2024-03-08T10:35:34;101290.41;;;0.41;100.00
33265;BME280;31404;53.974;-1.086;2024-03-08T10:40:35;101278.21;;;0.48;100.00
33265;BME280;31404;53.974;-1.086;2024-03-08T10:45:36;101274.41;;;0.84;100.00
33265;BME280;31404;53.974;-1.086;2024-03-08T10:50:35;101277.73;;;0.76;100.00
33265;BME280;31404;53.974;-1.086;2024-03-08T10:55:37;101269.66;;;1.36;100.00
33265;BME280;31404;53.974;-1.086;2024-03-08T11:00:34;101251.15;;;0.24;100.00
33265;BME280;31404;53.974;-1.086;2024-03-08T11:05:37;101253.34;;;0.30;100.00
33265;BME280;31404;53.974;-1.086;2024-03-08T11:20:35;101252.25;;;1.07;100.00
33265;BME280;31404;53.974;-1.086;2024-03-08T11:25:37;101251.89;;;0.58;100.00
33265;BME280;31404;53.974;-1.086;2024-03-08T11:30:34;101244.56;;;1.48;100.00
33265;BME280;31404;53.974;-1.086;2024-03-08T11:35:34;101246.03;;;0.77;100.00
33265;BME280;31404;53.974;-1.086;2024-03-08T11:40:35;101247.59;;;0.51;100.00
33265;BME280;31404;53.974;-1.086;2024-03-08T11:45:35;101243.06;;;0.15;100.00
33265;BME280;31404;53.974;-1.086;2024-03-08T11:50:35;101230.85;;;0.72;100.00
33265;BME280;31404;53.974;-1.086;2024-03-08T11:55:35;101225.13;;;0.88;100.00
33265;BME280;31404;53.974;-1.086;2024-03-08T12:00:35;101226.62;;;1.11;100.00
33265;BME280;31404;53.974;-1.086;2024-03-08T12:05:34;101213.60;;;0.08;100.00
33265;BME280;31404;53.974;-1.086;2024-03-08T12:10:34;101210.58;;;0.20;100.00
33265;BME280;31404;53.974;-1.086;2024-03-08T12:15:34;101214.61;;;0.21;100.00
33265;BME280;31404;53.974;-1.086;2024-03-08T12:20:35;101204.18;;;1.78;100.00
33265;BME280;31404;53.974;-1.086;2024-03-08T12:25:34;101204.05;;;0.90;100.00
33265;BME280;31404;53.974;-1.086;2024-03-08T12:30:34;101181.46;;;1.72;100.00
33265;BME280;31404;53.974;-1.086;2024-03-08T12:35:34;101177.38;;;1.38;100.00
33265;BME280;31404;53.974;-1.086;2024-03-08T12:40:34;101170.60;;;1.58;100.00
33265;BME280;31404;53.974;-1.086;2024-03-08T12:45:34;101157.89;;;1.71;100.00
33265;BME280;31404;53.974;-1.086;2024-03-08T12:50:34;101148.73;;;1.27;100.00
33265;BME280;31404;53.974;-1.086;2024-03-08T12:55:34;101143.75;;;1.76;100.00
33265;BME280;31404;53.974;-1.086;2024-03-08T13:00:34;101137.18;;;1.90;100.00
33265;BME280;31404;53.974;-1.086;2024-03-08T13:05:34;101135.75;;;1.01;100.00
33265;BME280;31404;53.974;-1.086;2024-03-08T13:10:34;101125.19;;;0.98;100.00
33265;BME280;31404;53.974;-1.086;2024-03-08T13:15:34;101121.06;;;1.59;100.00
33265;BME280;31404;53.974;-1.086;2024-03-08T13:20:35;101118.82;;;2.06;100.00
33265;BME280;31404;53.974;-1.086;2024-03-08T13:25:35;101109.21;;;0.81;100.00
33265;BME280;31404;53.974;-1.086;2024-03-08T13:30:35;101101.50;;;0.89;100.00
33265;BME280;31404;53.974;-1.086;2024-03-08T13:35:35;101104.84;;;1.55;100.00
33265;BME280;31404;53.974;-1.086;2024-03-08T13:40:35;101094.81;;;1.40;100.00
33265;BME280;31404;53.974;-1.086;2024-03-08T13:45:35;101095.96;;;1.76;100.00
33265;BME280;31404;53.974;-1.086;2024-03-08T13:50:35;101089.18;;;1.96;100.00
33265;BME280;31404;53.974;-1.086;2024-03-08T13:55:35;101080.63;;;2.39;100.00
33265;BME280;31404;53.974;-1.086;2024-03-08T14:00:35;101074.38;;;1.63;100.00
33265;BME280;31404;53.974;-1.086;2024-03-08T14:05:34;101068.65;;;1.85;100.00
33265;BME280;31404;53.974;-1.086;2024-03-08T14:10:35;101062.13;;;1.33;100.00
33265;BME280;31404;53.974;-1.086;2024-03-08T14:15:34;101050.85;;;1.77;100.00
33265;BME280;31404;53.974;-1.086;2024-03-08T14:20:35;101054.17;;;1.46;100.00
33265;BME280;31404;53.974;-1.086;2024-03-08T14:25:34;101049.72;;;1.51;100.00
33265;BME280;31404;53.974;-1.086;2024-03-08T14:30:34;101047.40;;;2.25;100.00
33265;BME280;31404;53.974;-1.086;2024-03-08T14:35:34;101043.27;;;2.68;100.00
33265;BME280;31404;53.974;-1.086;2024-03-08T14:40:34;101018.28;;;3.49;100.00
33265;BME280;31404;53.974;-1.086;2024-03-08T14:45:34;101018.86;;;0.99;100.00
33265;BME280;31404;53.974;-1.086;2024-03-08T14:50:34;101003.35;;;2.61;100.00
33265;BME280;31404;53.974;-1.086;2024-03-08T14:55:34;101004.40;;;1.49;100.00
33265;BME280;31404;53.974;-1.086;2024-03-08T15:00:34;100999.00;;;1.10;100.00
33265;BME280;31404;53.974;-1.086;2024-03-08T15:05:34;100988.68;;;1.56;100.00
33265;BME280;31404;53.974;-1.086;2024-03-08T15:10:34;100981.43;;;2.15;100.00
33265;BME280;31404;53.974;-1.086;2024-03-08T15:15:34;100975.06;;;1.80;100.00
33265;BME280;31404;53.974;-1.086;2024-03-08T15:20:35;100964.87;;;1.32;100.00
33265;BME280;31404;53.974;-1.086;2024-03-08T15:25:35;100955.47;;;1.97;100.00
33265;BME280;31404;53.974;-1.086;2024-03-08T15:30:35;100953.18;;;2.95;100.00
33265;BME280;31404;53.974;-1.086;2024-03-08T15:35:34;100945.98;;;2.04;100.00
33265;BME280;31404;53.974;-1.086;2024-03-08T15:40:34;100943.09;;;1.78;100.00
33265;BME280;31404;53.974;-1.086;2024-03-08T15:45:34;100942.12;;;1.48;100.00
33265;BME280;31404;53.974;-1.086;2024-03-08T15:50:34;100939.58;;;0.76;100.00
33265;BME280;31404;53.974;-1.086;2024-03-08T15:55:34;100938.57;;;1.11;100.00
33265;BME280;31404;53.974;-1.086;2024-03-08T16:00:34;100933.07;;;0.89;100.00
33265;BME280;31404;53.974;-1.086;2024-03-08T16:05:34;100927.66;;;1.41;100.00
33265;BME280;31404;53.974;-1.086;2024-03-08T16:10:35;100914.03;;;1.14;100.00
33265;BME280;31404;53.974;-1.086;2024-03-08T16:15:35;100908.52;;;2.02;100.00
33265;BME280;31404;53.974;-1.086;2024-03-08T16:20:35;100909.78;;;1.90;100.00
33265;BME280;31404;53.974;-1.086;2024-03-08T16:25:34;100914.43;;;2.16;100.00
33265;BME280;31404;53.974;-1.086;2024-03-08T16:30:34;100905.70;;;1.88;100.00
33265;BME280;31404;53.974;-1.086;2024-03-08T16:35:34;100910.80;;;1.85;100.00
33265;BME280;31404;53.974;-1.086;2024-03-08T16:40:34;100902.70;;;0.31;100.00
33265;BME280;31404;53.974;-1.086;2024-03-08T16:45:35;100905.14;;;0.49;100.00
33265;BME280;31404;53.974;-1.086;2024-03-08T16:50:34;100900.14;;;0.41;100.00
33265;BME280;31404;53.974;-1.086;2024-03-08T16:55:34;100903.15;;;0.09;100.00
33265;BME280;31404;53.974;-1.086;2024-03-08T17:00:34;100896.13;;;-0.22;100.00
33265;BME280;31404;53.974;-1.086;2024-03-08T17:05:34;100895.22;;;0.41;100.00
33265;BME280;31404;53.974;-1.086;2024-03-08T17:10:35;100888.55;;;0.42;100.00
33265;BME280;31404;53.974;-1.086;2024-03-08T17:15:35;100882.79;;;-0.32;100.00
33265;BME280;31404;53.974;-1.086;2024-03-08T17:20:35;100882.35;;;0.03;100.00
33265;BME280;31404;53.974;-1.086;2024-03-08T17:25:35;100879.99;;;-0.30;100.00
33265;BME280;31404;53.974;-1.086;2024-03-08T17:30:35;100881.44;;;0.39;100.00
33265;BME280;31404;53.974;-1.086;2024-03-08T17:35:36;100873.22;;;0.54;100.00
33265;BME280;31404;53.974;-1.086;2024-03-08T17:40:35;100872.07;;;0.11;100.00
33265;BME280;31404;53.974;-1.086;2024-03-08T17:45:35;100874.90;;;0.67;100.00
33265;BME280;31404;53.974;-1.086;2024-03-08T17:50:35;100874.14;;;1.27;100.00
33265;BME280;31404;53.974;-1.086;2024-03-08T17:55:35;100878.48;;;0.37;100.00
33265;BME280;31404;53.974;-1.086;2024-03-08T18:00:35;100887.61;;;1.47;100.00
33265;BME280;31404;53.974;-1.086;2024-03-08T18:05:34;100886.95;;;1.15;100.00
33265;BME280;31404;53.974;-1.086;2024-03-08T18:10:36;100878.30;;;0.41;100.00
33265;BME280;31404;53.974;-1.086;2024-03-08T18:15:34;100879.89;;;-0.64;100.00
33265;BME280;31404;53.974;-1.086;2024-03-08T18:20:35;100876.56;;;0.34;100.00
33265;BME280;31404;53.974;-1.086;2024-03-08T18:25:35;100865.34;;;0.39;100.00
33265;BME280;31404;53.974;-1.086;2024-03-08T18:30:35;100854.93;;;-0.06;100.00
33265;BME280;31404;53.974;-1.086;2024-03-08T18:35:35;100862.82;;;0.94;100.00
33265;BME280;31404;53.974;-1.086;2024-03-08T18:40:37;100855.62;;;0.58;100.00
33265;BME280;31404;53.974;-1.086;2024-03-08T18:45:35;100855.57;;;0.84;100.00
33265;BME280;31404;53.974;-1.086;2024-03-08T18:50:35;100854.44;;;0.04;100.00
33265;BME280;31404;53.974;-1.086;2024-03-08T18:55:35;100849.65;;;0.24;100.00
33265;BME280;31404;53.974;-1.086;2024-03-08T19:00:35;100852.36;;;0.95;100.00
33265;BME280;31404;53.974;-1.086;2024-03-08T19:05:34;100847.95;;;-0.44;100.00
33265;BME280;31404;53.974;-1.086;2024-03-08T19:10:35;100850.14;;;0.30;100.00
33265;BME280;31404;53.974;-1.086;2024-03-08T19:15:34;100851.88;;;-1.30;100.00
33265;BME280;31404;53.974;-1.086;2024-03-08T19:20:36;100846.67;;;0.09;100.00
33265;BME280;31404;53.974;-1.086;2024-03-08T19:25:35;100842.88;;;-0.14;100.00
33265;BME280;31404;53.974;-1.086;2024-03-08T19:30:35;100835.62;;;0.37;100.00
33265;BME280;31404;53.974;-1.086;2024-03-08T19:35:35;100834.01;;;0.66;100.00
33265;BME280;31404;53.974;-1.086;2024-03-08T19:40:34;100828.57;;;-0.50;100.00
33265;BME280;31404;53.974;-1.086;2024-03-08T19:45:34;100835.10;;;0.03;100.00
33265;BME280;31404;53.974;-1.086;2024-03-08T19:50:34;100829.34;;;-0.13;100.00
33265;BME280;31404;53.974;-1.086;2024-03-08T19:55:36;100825.54;;;-0.29;100.00
33265;BME280;31404;53.974;-1.086;2024-03-08T20:00:35;100820.53;;;-0.11;100.00
33265;BME280;31404;53.974;-1.086;2024-03-08T20:05:34;100815.90;;;1.83;100.00
33265;BME280;31404;53.974;-1.086;2024-03-08T20:15:37;100821.18;;;0.86;100.00
33265;BME280;31404;53.974;-1.086;2024-03-08T20:20:34;100819.45;;;0.47;100.00
33265;BME280;31404;53.974;-1.086;2024-03-08T20:25:35;100818.86;;;0.43;100.00
33265;BME280;31404;53.974;-1.086;2024-03-08T20:30:35;100812.37;;;0.66;100.00
33265;BME280;31404;53.974;-1.086;2024-03-08T20:35:35;100805.41;;;0.47;100.00
33265;BME280;31404;53.974;-1.086;2024-03-08T20:40:35;100798.92;;;1.00;100.00
33265;BME280;31404;53.974;-1.086;2024-03-08T20:45:35;100789.63;;;0.16;100.00
33265;BME280;31404;53.974;-1.086;2024-03-08T20:50:35;100782.89;;;1.53;100.00
33265;BME280;31404;53.974;-1.086;2024-03-08T20:55:35;100776.18;;;2.69;100.00
33265;BME280;31404;53.974;-1.086;2024-03-08T21:00:35;100778.71;;;1.15;100.00
33265;BME280;31404;53.974;-1.086;2024-03-08T21:05:41;100769.57;;;0.85;100.00
33265;BME280;31404;53.974;-1.086;2024-03-08T21:10:40;100758.98;;;1.18;100.00
33265;BME280;31404;53.974;-1.086;2024-03-08T21:15:34;100750.73;;;0.51;100.00
33265;BME280;31404;53.974;-1.086;2024-03-08T21:20:35;100729.88;;;1.33;100.00
33265;BME280;31404;53.974;-1.086;2024-03-08T21:25:35;100727.21;;;0.53;100.00
33265;BME280;31404;53.974;-1.086;2024-03-08T21:30:35;100713.11;;;1.80;100.00
33265;BME280;31404;53.974;-1.086;2024-03-08T21:35:35;100712.74;;;-0.35;100.00
33265;BME280;31404;53.974;-1.086;2024-03-08T21:40:35;100694.57;;;1.18;100.00
33265;BME280;31404;53.974;-1.086;2024-03-08T21:45:35;100688.98;;;0.34;100.00
33265;BME280;31404;53.974;-1.086;2024-03-08T21:50:35;100687.84;;;0.02;100.00
33265;BME280;31404;53.974;-1.086;2024-03-08T21:55:35;100679.87;;;1.43;100.00
33265;BME280;31404;53.974;-1.086;2024-03-08T22:00:35;100671.86;;;1.17;100.00
33265;BME280;31404;53.974;-1.086;2024-03-08T22:05:35;100671.30;;;-0.10;100.00
33265;BME280;31404;53.974;-1.086;2024-03-08T22:10:35;100663.19;;;0.54;100.00
33265;BME280;31404;53.974;-1.086;2024-03-08T22:15:35;100661.01;;;1.99;100.00
33265;BME280;31404;53.974;-1.086;2024-03-08T22:20:35;100661.18;;;0.82;100.00
33265;BME280;31404;53.974;-1.086;2024-03-08T22:25:34;100658.42;;;0.58;100.00
33265;BME280;31404;53.974;-1.086;2024-03-08T22:30:34;100654.60;;;1.25;100.00
33265;BME280;31404;53.974;-1.086;2024-03-08T22:35:36;100654.45;;;0.49;100.00
33265;BME280;31404;53.974;-1.086;2024-03-08T22:40:34;100650.65;;;2.10;100.00
33265;BME280;31404;53.974;-1.086;2024-03-08T22:45:34;100642.71;;;1.24;100.00
33265;BME280;31404;53.974;-1.086;2024-03-08T22:50:34;100634.58;;;1.19;100.00
33265;BME280;31404;53.974;-1.086;2024-03-08T22:55:34;100627.04;;;1.10;100.00
33265;BME280;31404;53.974;-1.086;2024-03-08T23:00:34;100621.23;;;1.28;100.00
33265;BME280;31404;53.974;-1.086;2024-03-08T23:05:34;100621.57;;;0.36;100.00
33265;BME280;31404;53.974;-1.086;2024-03-08T23:10:35;100614.83;;;0.70;100.00
33265;BME280;31404;53.974;-1.086;2024-03-08T23:15:35;100609.21;;;0.10;100.00
33265;BME280;31404;53.974;-1.086;2024-03-08T23:20:36;100608.07;;;-0.04;100.00
33265;BME280;31404;53.974;-1.086;2024-03-08T23:25:35;100603.87;;;0.77;100.00
33265;BME280;31404;53.974;-1.086;2024-03-08T23:30:38;100596.33;;;0.86;100.00
33265;BME280;31404;53.974;-1.086;2024-03-08T23:35:35;100585.86;;;0.18;100.00
33265;BME280;31404;53.974;-1.086;2024-03-08T23:40:34;100577.29;;;0.26;100.00
33265;BME280;31404;53.974;-1.086;2024-03-08T23:45:34;100575.13;;;0.91;100.00
33265;BME280;31404;53.974;-1.086;2024-03-08T23:50:35;100563.97;;;1.53;100.00
33265;BME280;31404;53.974;-1.086;2024-03-08T23:55:35;100557.23;;;1.06;100.00
